createdAt,value
2022-10-02T00:00:55.014Z,23.43
2022-10-02T00:03:25.865Z,23.44
2022-10-02T00:05:59.356Z,23.42
2022-10-02T00:08:30.578Z,23.42
2022-10-02T00:11:01.542Z,23.43
2022-10-02T00:13:35.496Z,23.42
2022-10-02T00:16:04.123Z,23.42
2022-10-02T00:18:36.059Z,23.41
2022-10-02T00:21:05.805Z,23.42
2022-10-02T00:23:36.450Z,23.42
2022-10-02T00:26:06.642Z,23.42
2022-10-02T00:28:41.299Z,23.42
2022-10-02T00:31:24.076Z,23.41
2022-10-02T00:34:00.724Z,23.42
2022-10-02T00:36:36.394Z,23.41
2022-10-02T00:39:07.594Z,23.41
2022-10-02T00:42:00.030Z,23.41
2022-10-02T00:44:42.183Z,23.40
2022-10-02T00:47:16.681Z,23.42
2022-10-02T00:49:55.204Z,23.41
2022-10-02T00:52:41.449Z,23.40
2022-10-02T00:55:22.002Z,23.40
2022-10-02T00:57:56.519Z,23.42
2022-10-02T01:00:24.430Z,23.42
2022-10-02T01:03:12.966Z,23.40
2022-10-02T01:05:42.561Z,23.40
2022-10-02T01:08:10.529Z,23.40
2022-10-02T01:10:39.349Z,23.38
2022-10-02T01:13:08.138Z,23.39
2022-10-02T01:15:37.530Z,23.38
2022-10-02T01:18:05.674Z,23.39
2022-10-02T01:20:36.613Z,23.36
2022-10-02T01:23:12.048Z,23.37
2022-10-02T01:25:41.528Z,23.37
2022-10-02T01:28:10.745Z,23.37
2022-10-02T01:30:40.723Z,23.37
2022-10-02T01:33:08.892Z,23.37
2022-10-02T01:35:38.385Z,23.37
2022-10-02T01:38:08.403Z,23.37
2022-10-02T01:40:37.369Z,23.37
2022-10-02T01:43:09.451Z,23.38
2022-10-02T01:45:45.315Z,23.37
2022-10-02T01:48:15.037Z,23.36
2022-10-02T01:50:49.455Z,23.36
2022-10-02T01:53:20.188Z,23.36
2022-10-02T01:55:53.579Z,23.37
2022-10-02T01:58:26.008Z,23.36
2022-10-02T02:01:02.627Z,23.35
2022-10-02T02:03:38.214Z,23.38
2022-10-02T02:06:10.614Z,23.41
2022-10-02T02:08:44.228Z,23.43
2022-10-02T02:11:14.770Z,23.43
2022-10-02T02:13:46.262Z,23.44
2022-10-02T02:16:19.157Z,23.44
2022-10-02T02:18:50.399Z,23.44
2022-10-02T02:21:22.245Z,23.45
2022-10-02T02:23:51.249Z,23.45
2022-10-02T02:26:20.496Z,23.47
2022-10-02T02:28:52.297Z,23.46
2022-10-02T02:31:22.488Z,23.46
2022-10-02T02:33:52.449Z,23.45
2022-10-02T02:36:22.641Z,23.44
2022-10-02T02:38:53.237Z,23.45
2022-10-02T02:41:25.703Z,23.45
2022-10-02T02:43:57.166Z,23.44
2022-10-02T02:46:28.270Z,23.43
2022-10-02T02:48:58.277Z,23.43
2022-10-02T02:51:28.696Z,23.43
2022-10-02T02:54:00.166Z,23.43
2022-10-02T02:56:29.584Z,23.41
2022-10-02T02:59:01.037Z,23.44
2022-10-02T03:01:29.139Z,23.48
2022-10-02T03:03:57.100Z,23.47
2022-10-02T03:06:27.947Z,23.44
2022-10-02T03:08:56.108Z,23.43
2022-10-02T03:11:28.251Z,23.42
2022-10-02T03:13:59.526Z,23.43
2022-10-02T03:16:35.281Z,23.44
2022-10-02T03:19:10.380Z,23.43
2022-10-02T03:21:41.209Z,23.43
2022-10-02T03:24:12.807Z,23.46
2022-10-02T03:26:42.355Z,23.50
2022-10-02T03:29:15.345Z,23.45
2022-10-02T03:31:45.556Z,23.45
2022-10-02T03:34:14.005Z,23.44
2022-10-02T03:36:42.330Z,23.44
2022-10-02T03:39:24.672Z,23.42
2022-10-02T03:41:53.890Z,23.46
2022-10-02T03:44:21.861Z,23.46
2022-10-02T03:46:51.260Z,23.47
2022-10-02T03:49:19.235Z,23.48
2022-10-02T03:51:47.177Z,23.48
2022-10-02T03:54:18.302Z,23.48
2022-10-02T03:56:50.645Z,23.47
2022-10-02T03:59:34.743Z,23.47
2022-10-02T04:02:07.512Z,23.47
2022-10-02T04:04:41.697Z,23.48
2022-10-02T04:07:14.000Z,23.50
2022-10-02T04:09:46.033Z,23.49
2022-10-02T04:12:16.711Z,23.48
2022-10-02T04:14:47.455Z,23.47
2022-10-02T04:17:20.714Z,23.47
2022-10-02T04:19:50.464Z,23.48
2022-10-02T04:22:33.155Z,23.49
2022-10-02T04:25:04.126Z,23.50
2022-10-02T04:27:34.825Z,23.49
2022-10-02T04:30:04.918Z,23.49
2022-10-02T04:32:37.491Z,23.51
2022-10-02T04:35:07.899Z,23.50
2022-10-02T04:37:47.089Z,23.52
2022-10-02T04:40:21.456Z,23.51
2022-10-02T04:42:57.033Z,23.54
2022-10-02T04:45:42.592Z,23.56
2022-10-02T04:48:40.759Z,23.56
2022-10-02T04:51:18.022Z,23.60
2022-10-02T04:53:54.501Z,23.61
2022-10-02T04:56:30.327Z,23.61
2022-10-02T04:59:07.268Z,23.63
2022-10-02T05:01:46.411Z,23.62
2022-10-02T05:04:27.469Z,23.62
2022-10-02T05:07:08.375Z,23.59
2022-10-02T05:09:40.403Z,23.58
2022-10-02T05:12:23.171Z,23.57
2022-10-02T05:15:03.856Z,23.59
2022-10-02T05:17:43.434Z,23.61
2022-10-02T05:20:19.087Z,23.59
2022-10-02T05:23:05.733Z,23.59
2022-10-02T05:25:43.078Z,23.59
2022-10-02T05:28:32.935Z,23.58
2022-10-02T05:31:10.384Z,23.58
2022-10-02T05:33:59.511Z,23.57
2022-10-02T05:36:36.524Z,23.54
2022-10-02T05:39:08.843Z,23.51
2022-10-02T05:41:46.108Z,23.54
2022-10-02T05:44:16.575Z,23.52
2022-10-02T05:46:46.463Z,23.52
2022-10-02T05:49:17.785Z,23.51
2022-10-02T05:51:50.689Z,23.55
2022-10-02T05:54:24.549Z,23.56
2022-10-02T05:56:56.008Z,23.57
2022-10-02T05:59:30.584Z,23.56
2022-10-02T06:01:59.845Z,23.57
2022-10-02T06:04:30.554Z,23.58
2022-10-02T06:07:00.390Z,23.56
2022-10-02T06:09:32.108Z,23.56
2022-10-02T06:12:02.126Z,23.56
2022-10-02T06:14:33.612Z,23.57
2022-10-02T06:17:05.307Z,23.58
2022-10-02T06:19:36.113Z,23.58
2022-10-02T06:22:08.303Z,23.59
2022-10-02T06:24:40.938Z,23.60
2022-10-02T06:27:12.750Z,23.60
2022-10-02T06:29:43.663Z,23.62
2022-10-02T06:32:18.111Z,23.61
2022-10-02T06:34:48.173Z,23.61
2022-10-02T06:37:29.078Z,23.65
2022-10-02T06:40:09.001Z,23.64
2022-10-02T06:42:44.355Z,23.65
2022-10-02T06:45:17.350Z,23.66
2022-10-02T06:47:59.414Z,23.64
2022-10-02T06:50:33.871Z,23.65
2022-10-02T06:53:05.851Z,23.66
2022-10-02T06:55:40.953Z,23.65
2022-10-02T06:58:23.291Z,23.64
2022-10-02T07:00:53.387Z,23.65
2022-10-02T07:03:36.458Z,23.65
2022-10-02T07:06:14.190Z,23.63
2022-10-02T07:09:03.261Z,23.63
2022-10-02T07:11:41.047Z,23.66
2022-10-02T07:14:18.164Z,23.65
2022-10-02T07:16:52.183Z,23.64
2022-10-02T07:19:39.216Z,23.65
2022-10-02T07:22:39.648Z,23.65
2022-10-02T07:25:15.473Z,23.65
2022-10-02T07:27:52.491Z,23.65
2022-10-02T07:30:20.670Z,23.64
2022-10-02T07:32:49.464Z,23.67
2022-10-02T07:35:24.492Z,23.68
2022-10-02T07:38:00.134Z,23.69
2022-10-02T07:40:32.032Z,23.68
2022-10-02T07:43:08.899Z,23.69
2022-10-02T07:45:38.949Z,23.67
2022-10-02T07:48:24.770Z,23.68
2022-10-02T07:51:03.437Z,23.68
2022-10-02T07:53:39.242Z,23.68
2022-10-02T07:56:08.251Z,23.67
2022-10-02T07:58:40.011Z,23.66
2022-10-02T08:01:12.755Z,23.67
2022-10-02T08:03:45.169Z,23.65
2022-10-02T08:06:13.465Z,23.66
2022-10-02T08:08:45.968Z,23.66
2022-10-02T08:11:16.930Z,23.66
2022-10-02T08:13:48.971Z,23.69
2022-10-02T08:16:20.961Z,23.72
2022-10-02T08:18:51.427Z,23.73
2022-10-02T08:21:21.441Z,23.74
2022-10-02T08:23:54.071Z,23.77
2022-10-02T08:26:27.661Z,23.77
2022-10-02T08:29:05.854Z,23.77
2022-10-02T08:31:34.274Z,23.79
2022-10-02T08:34:07.880Z,23.81
2022-10-02T08:36:43.831Z,23.82
2022-10-02T08:39:24.712Z,23.84
2022-10-02T08:42:13.579Z,23.86
2022-10-02T08:45:08.221Z,23.87
2022-10-02T08:48:09.470Z,23.88
2022-10-02T08:51:00.144Z,23.87
2022-10-02T08:53:46.071Z,23.87
2022-10-02T08:56:28.916Z,23.86
2022-10-02T08:59:19.270Z,23.87
2022-10-02T09:02:12.548Z,23.84
2022-10-02T09:05:01.195Z,23.86
2022-10-02T09:07:53.721Z,23.86
2022-10-02T09:10:46.139Z,23.86
2022-10-02T09:13:31.715Z,23.89
2022-10-02T09:16:07.519Z,23.89
2022-10-02T09:18:47.967Z,23.89
2022-10-02T09:21:16.976Z,23.88
2022-10-02T09:24:06.209Z,23.89
2022-10-02T09:26:42.859Z,23.89
2022-10-02T09:29:34.783Z,23.89
2022-10-02T09:32:18.893Z,23.86
2022-10-02T09:34:58.606Z,23.86
2022-10-02T09:37:44.220Z,23.86
2022-10-02T09:40:32.750Z,23.87
2022-10-02T09:43:10.948Z,23.86
2022-10-02T09:45:57.591Z,23.86
2022-10-02T09:48:45.530Z,23.86
2022-10-02T09:51:40.314Z,23.85
2022-10-02T09:54:26.755Z,23.86
2022-10-02T09:57:11.827Z,23.86
2022-10-02T09:59:59.854Z,23.86
2022-10-02T10:02:58.261Z,23.84
2022-10-02T10:05:41.200Z,23.82
2022-10-02T10:08:25.915Z,23.81
2022-10-02T10:11:02.495Z,23.83
2022-10-02T10:13:56.146Z,23.82
2022-10-02T10:16:39.137Z,23.83
2022-10-02T10:19:16.607Z,23.82
2022-10-02T10:22:03.217Z,23.81
2022-10-02T10:24:52.997Z,23.81
2022-10-02T10:27:35.798Z,23.80
2022-10-02T10:30:20.117Z,23.81
2022-10-02T10:33:09.425Z,23.80
2022-10-02T10:35:52.401Z,23.81
2022-10-02T10:38:36.865Z,23.81
2022-10-02T10:41:24.594Z,23.81
2022-10-02T10:44:04.460Z,23.82
2022-10-02T10:46:42.258Z,23.82
2022-10-02T10:49:21.366Z,23.80
2022-10-02T10:51:53.228Z,23.80
2022-10-02T10:54:34.236Z,23.79
2022-10-02T10:57:08.006Z,23.81
2022-10-02T10:59:58.976Z,23.82
2022-10-02T11:02:54.796Z,23.84
2022-10-02T11:05:33.234Z,23.83
2022-10-02T11:08:11.054Z,23.82
2022-10-02T11:10:48.555Z,23.82
2022-10-02T11:13:25.202Z,23.81
2022-10-02T11:16:14.694Z,23.82
2022-10-02T11:18:54.044Z,23.83
2022-10-02T11:21:35.233Z,23.84
2022-10-02T11:24:11.450Z,23.82
2022-10-02T11:26:51.403Z,23.81
2022-10-02T11:29:37.255Z,23.83
2022-10-02T11:32:15.508Z,23.82
2022-10-02T11:34:59.741Z,23.83
2022-10-02T11:37:39.031Z,23.82
2022-10-02T11:40:22.051Z,23.83
2022-10-02T11:42:57.411Z,23.84
2022-10-02T11:45:43.858Z,23.86
2022-10-02T11:48:24.360Z,23.86
2022-10-02T11:51:13.595Z,23.84
2022-10-02T11:53:59.984Z,23.83
2022-10-02T11:56:37.777Z,23.83
2022-10-02T11:59:18.424Z,23.83
2022-10-02T12:01:52.616Z,23.84
2022-10-02T12:04:35.458Z,23.82
2022-10-02T12:07:09.283Z,23.83
2022-10-02T12:09:44.923Z,23.85
2022-10-02T12:12:27.050Z,23.86
2022-10-02T12:15:00.943Z,23.85
2022-10-02T12:17:53.514Z,23.84
2022-10-02T12:20:43.459Z,23.84
2022-10-02T12:23:37.849Z,23.85
2022-10-02T12:26:29.158Z,23.85
2022-10-02T12:28:59.604Z,23.88
2022-10-02T12:31:33.474Z,23.88
2022-10-02T12:34:05.594Z,23.88
2022-10-02T12:36:44.174Z,23.89
2022-10-02T12:39:21.980Z,23.89
2022-10-02T12:42:01.037Z,23.90
2022-10-02T12:44:39.589Z,23.89
2022-10-02T12:47:31.674Z,23.89
2022-10-02T12:50:04.422Z,23.87
2022-10-02T12:53:04.601Z,23.87
2022-10-02T12:55:56.593Z,23.87
2022-10-02T12:58:31.117Z,23.86
2022-10-02T13:01:18.438Z,23.86
2022-10-02T13:03:52.166Z,23.87
2022-10-02T13:06:34.007Z,23.86
2022-10-02T13:09:17.411Z,23.84
2022-10-02T13:11:55.665Z,23.78
2022-10-02T13:14:35.101Z,23.77
2022-10-02T13:17:15.336Z,23.76
2022-10-02T13:19:49.623Z,23.76
2022-10-02T13:22:20.737Z,23.75
2022-10-02T13:24:57.438Z,23.76
2022-10-02T13:27:31.779Z,23.78
2022-10-02T13:30:06.990Z,23.79
2022-10-02T13:32:45.962Z,23.78
2022-10-02T13:35:26.079Z,23.80
2022-10-02T13:38:01.270Z,23.80
2022-10-02T13:40:34.761Z,23.82
2022-10-02T13:43:26.258Z,23.81
2022-10-02T13:46:00.068Z,23.81
2022-10-02T13:48:33.104Z,23.82
2022-10-02T13:51:05.281Z,23.81
2022-10-02T13:53:39.219Z,23.77
2022-10-02T13:56:15.531Z,23.78
2022-10-02T13:58:52.057Z,23.76
2022-10-02T14:01:25.505Z,23.75
2022-10-02T14:04:07.540Z,23.72
2022-10-02T14:06:37.585Z,23.71
2022-10-02T14:09:13.460Z,23.73
2022-10-02T14:11:56.561Z,23.73
2022-10-02T14:14:29.653Z,23.75
2022-10-02T14:17:04.253Z,23.75
2022-10-02T14:19:38.814Z,23.77
2022-10-02T14:22:13.622Z,23.77
2022-10-02T14:25:04.100Z,23.77
2022-10-02T14:27:56.060Z,23.80
2022-10-02T14:30:28.809Z,23.79
2022-10-02T14:33:04.485Z,23.76
2022-10-02T14:35:35.772Z,23.72
2022-10-02T14:38:17.759Z,23.71
2022-10-02T14:40:51.790Z,23.68
2022-10-02T14:43:34.517Z,23.65
2022-10-02T14:46:20.434Z,23.65
2022-10-02T14:49:01.102Z,23.64
2022-10-02T14:51:38.645Z,23.63
2022-10-02T14:54:29.625Z,23.61
2022-10-02T14:57:05.004Z,23.66
2022-10-02T14:59:51.022Z,23.72
2022-10-02T15:02:28.311Z,23.72
2022-10-02T15:05:04.232Z,23.70
2022-10-02T15:07:35.430Z,23.66
2022-10-02T15:10:08.662Z,23.64
2022-10-02T15:12:44.554Z,23.64
2022-10-02T15:15:14.956Z,23.63
2022-10-02T15:17:57.447Z,23.63
2022-10-02T15:20:31.205Z,23.68
2022-10-02T15:23:00.768Z,23.69
2022-10-02T15:25:42.693Z,23.67
2022-10-02T15:28:34.983Z,23.67
2022-10-02T15:31:06.737Z,23.68
2022-10-02T15:33:37.578Z,23.69
2022-10-02T15:36:17.493Z,23.68
2022-10-02T15:38:51.879Z,23.69
2022-10-02T15:41:31.651Z,23.73
2022-10-02T15:44:06.815Z,23.74
2022-10-02T15:46:39.271Z,23.75
2022-10-02T15:49:13.662Z,23.74
2022-10-02T15:52:00.740Z,23.73
2022-10-02T15:54:44.303Z,23.69
2022-10-02T15:57:20.584Z,23.65
2022-10-02T16:00:06.407Z,23.63
2022-10-02T16:02:58.015Z,23.61
2022-10-02T16:05:36.140Z,23.61
2022-10-02T16:08:11.912Z,23.61
2022-10-02T16:10:44.362Z,23.63
2022-10-02T16:13:22.300Z,23.65
2022-10-02T16:15:53.105Z,23.66
2022-10-02T16:18:33.816Z,23.64
2022-10-02T16:21:12.793Z,23.64
2022-10-02T16:24:05.246Z,23.63
2022-10-02T16:26:40.260Z,23.61
2022-10-02T16:29:26.656Z,23.60
2022-10-02T16:32:10.885Z,23.63
2022-10-02T16:34:44.426Z,23.68
2022-10-02T16:37:20.071Z,23.70
2022-10-02T16:39:54.848Z,23.70
2022-10-02T16:42:34.340Z,23.70
2022-10-02T16:45:15.147Z,23.69
2022-10-02T16:47:46.797Z,23.69
2022-10-02T16:50:18.695Z,23.68
2022-10-02T16:52:50.216Z,23.68
2022-10-02T16:55:24.745Z,23.72
2022-10-02T16:58:01.475Z,23.76
2022-10-02T17:00:32.734Z,23.77
2022-10-02T17:03:03.974Z,23.79
2022-10-02T17:05:36.687Z,23.80
2022-10-02T17:08:06.918Z,23.81
2022-10-02T17:10:41.351Z,23.82
2022-10-02T17:13:19.827Z,23.82
2022-10-02T17:15:50.318Z,23.82
2022-10-02T17:18:26.096Z,23.84
2022-10-02T17:20:56.114Z,23.85
2022-10-02T17:23:27.949Z,23.85
2022-10-02T17:26:03.026Z,23.84
2022-10-02T17:28:37.092Z,23.84
2022-10-02T17:31:18.268Z,23.84
2022-10-02T17:33:48.086Z,23.84
2022-10-02T17:36:20.165Z,23.83
2022-10-02T17:38:55.553Z,23.82
2022-10-02T17:41:40.322Z,23.82
2022-10-02T17:44:16.234Z,23.83
2022-10-02T17:46:53.198Z,23.82
2022-10-02T17:49:27.602Z,23.83
2022-10-02T17:55:06.406Z,23.82
2022-10-02T17:57:51.752Z,23.83
2022-10-02T18:00:24.006Z,23.82
2022-10-02T18:03:30.894Z,23.81
2022-10-02T18:06:11.033Z,23.81
2022-10-02T18:08:53.172Z,23.80
2022-10-02T18:11:43.334Z,23.82
2022-10-02T18:14:27.290Z,23.80
2022-10-02T18:17:14.397Z,23.81
2022-10-02T18:19:56.305Z,23.80
2022-10-02T18:22:47.268Z,23.80
2022-10-02T18:25:35.776Z,23.80
2022-10-02T18:28:23.836Z,23.79
2022-10-02T18:31:10.521Z,23.80
2022-10-02T18:34:07.113Z,23.79
2022-10-02T18:36:56.408Z,23.79
2022-10-02T18:39:29.979Z,23.79
2022-10-02T18:42:01.995Z,23.79
2022-10-02T18:44:45.302Z,23.79
2022-10-02T18:47:27.861Z,23.78
2022-10-02T18:50:11.061Z,23.78
2022-10-02T18:53:05.334Z,23.78
2022-10-02T18:55:50.185Z,23.78
2022-10-02T18:58:33.096Z,23.79
2022-10-02T19:01:42.410Z,23.79
2022-10-02T19:04:37.528Z,23.78
2022-10-02T19:07:13.043Z,23.78
2022-10-02T19:09:42.708Z,23.78
2022-10-02T19:12:17.261Z,23.78
2022-10-02T19:14:47.186Z,23.78
2022-10-02T19:17:24.133Z,23.78
2022-10-02T19:19:52.820Z,23.78
2022-10-02T19:22:23.206Z,23.78
2022-10-02T19:24:54.864Z,23.77
2022-10-02T19:27:31.197Z,23.77
2022-10-02T19:30:01.799Z,23.78
2022-10-02T19:32:34.331Z,23.78
2022-10-02T19:35:08.472Z,23.79
2022-10-02T19:37:42.432Z,23.78
2022-10-02T19:40:17.391Z,23.77
2022-10-02T19:42:50.334Z,23.78
2022-10-02T19:45:27.137Z,23.78
2022-10-02T19:47:59.924Z,23.77
2022-10-02T19:50:41.170Z,23.77
2022-10-02T19:53:23.326Z,23.77
2022-10-02T19:55:57.275Z,23.78
2022-10-02T19:58:33.327Z,23.78
2022-10-02T20:01:02.647Z,23.77
2022-10-02T20:03:33.367Z,23.77
2022-10-02T20:06:11.081Z,23.77
2022-10-02T20:08:45.029Z,23.79
2022-10-02T20:11:21.580Z,23.78
2022-10-02T20:13:54.561Z,23.79
2022-10-02T20:16:42.990Z,23.78
2022-10-02T20:19:18.322Z,23.78
2022-10-02T20:21:51.517Z,23.79
2022-10-02T20:24:26.445Z,23.79
2022-10-02T20:27:01.418Z,23.79
2022-10-02T20:29:37.922Z,23.79
2022-10-02T20:32:09.797Z,23.78
2022-10-02T20:34:44.491Z,23.80
2022-10-02T20:37:16.855Z,23.80
2022-10-02T20:39:54.576Z,23.78
2022-10-02T20:42:27.492Z,23.79
2022-10-02T20:44:55.747Z,23.79
2022-10-02T20:47:42.620Z,23.80
2022-10-02T20:50:40.882Z,23.80
2022-10-02T20:53:51.479Z,23.79
2022-10-02T20:56:35.207Z,23.79
2022-10-02T20:59:26.999Z,23.80
2022-10-02T21:02:08.182Z,23.79
2022-10-02T21:05:23.724Z,23.80
2022-10-02T21:08:21.821Z,23.79
2022-10-02T21:11:27.112Z,23.79
2022-10-02T21:14:22.997Z,23.80
2022-10-02T21:17:23.638Z,23.80
2022-10-02T21:20:51.320Z,23.78
2022-10-02T21:23:50.091Z,23.75
2022-10-02T21:26:40.684Z,23.76
2022-10-02T21:29:32.939Z,23.76
2022-10-02T21:32:34.021Z,23.74
2022-10-02T21:35:13.968Z,23.75
2022-10-02T21:37:59.256Z,23.74
2022-10-02T21:41:08.525Z,23.74
2022-10-02T21:43:57.386Z,23.73
2022-10-02T21:47:07.371Z,23.73
2022-10-02T21:50:10.998Z,23.73
2022-10-02T21:53:15.823Z,23.73
2022-10-02T21:56:22.685Z,23.73
2022-10-02T21:59:25.322Z,23.73
2022-10-02T22:02:28.974Z,23.72
2022-10-02T22:05:26.089Z,23.72
2022-10-02T22:08:03.384Z,23.74
2022-10-02T22:10:36.996Z,23.73
2022-10-02T22:13:18.331Z,23.74
2022-10-02T22:15:55.481Z,23.74
2022-10-02T22:18:33.389Z,23.74
2022-10-02T22:21:20.378Z,23.74
2022-10-02T22:24:08.003Z,23.73
2022-10-02T22:26:59.267Z,23.74
2022-10-02T22:29:42.898Z,23.73
2022-10-02T22:32:50.506Z,23.73
2022-10-02T22:35:31.604Z,23.73
2022-10-02T22:38:16.592Z,23.73
2022-10-02T22:40:52.506Z,23.72
2022-10-02T22:43:28.166Z,23.74
2022-10-02T22:46:03.949Z,23.72
2022-10-02T22:48:38.833Z,23.73
2022-10-02T22:51:16.501Z,23.72
2022-10-02T22:53:50.867Z,23.73
2022-10-02T22:56:30.537Z,23.73
2022-10-02T22:59:10.530Z,23.73
2022-10-02T23:01:46.226Z,23.74
2022-10-02T23:04:31.377Z,23.73
2022-10-02T23:07:05.639Z,23.73
2022-10-02T23:09:41.656Z,23.73
2022-10-02T23:12:16.932Z,23.73
2022-10-02T23:14:59.010Z,23.72
2022-10-02T23:17:35.954Z,23.71
2022-10-02T23:20:14.449Z,23.72
2022-10-02T23:22:51.613Z,23.72
2022-10-02T23:25:27.316Z,23.71
2022-10-02T23:28:01.576Z,23.73
2022-10-02T23:30:34.660Z,23.72
2022-10-02T23:33:08.969Z,23.73
2022-10-02T23:35:46.531Z,23.73
2022-10-02T23:38:20.921Z,23.73
2022-10-02T23:41:26.775Z,23.73
2022-10-02T23:44:10.110Z,23.72
2022-10-02T23:46:55.837Z,23.72
2022-10-02T23:49:31.398Z,23.72
2022-10-02T23:52:12.135Z,23.73
2022-10-02T23:54:53.957Z,23.72
2022-10-02T23:57:39.103Z,23.72
